createdAt,value
2019-01-23T00:00:03.479Z,1004.5
2019-01-23T00:01:03.892Z,1004.5
2019-01-23T00:02:02.860Z,1004.5
2019-01-23T00:03:03.576Z,1004.5
2019-01-23T00:04:03.624Z,1004.4
2019-01-23T00:05:03.851Z,1004.5
2019-01-23T00:06:03.566Z,1004.4
2019-01-23T00:07:03.274Z,1004.4
2019-01-23T00:08:03.350Z,1004.4
2019-01-23T00:09:03.293Z,1004.3
2019-01-23T00:10:03.476Z,1004.3
2019-01-23T00:11:03.246Z,1004.3
2019-01-23T00:12:03.677Z,1004.4
2019-01-23T00:13:03.904Z,1004.3
2019-01-23T00:14:03.912Z,1004.3
2019-01-23T00:15:03.131Z,1004.3
2019-01-23T00:16:03.240Z,1004.2
2019-01-23T00:17:03.396Z,1004.2
2019-01-23T00:18:03.382Z,1004.2
2019-01-23T00:19:03.161Z,1004.2
2019-01-23T00:20:03.547Z,1004.3
2019-01-23T00:21:03.610Z,1004.3
2019-01-23T00:22:03.422Z,1004.2
2019-01-23T00:23:03.242Z,1004.3
2019-01-23T00:24:03.926Z,1004.3
2019-01-23T00:25:03.588Z,1004.3
2019-01-23T00:26:03.807Z,1004.2
2019-01-23T00:27:03.182Z,1004.1
2019-01-23T00:28:03.239Z,1004.2
2019-01-23T00:29:03.475Z,1004.2
2019-01-23T00:30:03.410Z,1004.3
2019-01-23T00:31:03.559Z,1004.3
2019-01-23T00:32:03.399Z,1004.2
2019-01-23T00:33:02.835Z,1004.2
2019-01-23T00:34:03.369Z,1004.1
2019-01-23T00:35:03.356Z,1004.1
2019-01-23T00:36:03.301Z,1004.2
2019-01-23T00:37:03.468Z,1004.2
2019-01-23T00:38:03.767Z,1004.2
2019-01-23T00:39:02.522Z,1004.2
2019-01-23T00:40:03.581Z,1004.2
2019-01-23T00:41:03.431Z,1004.2
2019-01-23T00:42:02.961Z,1004.2
2019-01-23T00:43:03.106Z,1004.2
2019-01-23T00:44:03.136Z,1004.2
2019-01-23T00:45:03.571Z,1004.2
2019-01-23T00:46:03.141Z,1004.1
2019-01-23T00:47:03.735Z,1004.2
2019-01-23T00:48:04.043Z,1004.2
2019-01-23T00:49:03.358Z,1004.1
2019-01-23T00:50:03.422Z,1004
2019-01-23T00:51:03.345Z,1004.1
2019-01-23T00:52:03.483Z,1004.1
2019-01-23T00:53:02.972Z,1004.1
2019-01-23T00:54:03.108Z,1004
2019-01-23T00:55:03.175Z,1004
2019-01-23T00:56:03.934Z,1004
2019-01-23T00:57:02.362Z,1004
2019-01-23T00:58:03.793Z,1004
2019-01-23T00:59:03.600Z,1004
2019-01-23T01:00:03.716Z,1004
2019-01-23T01:01:02.976Z,1003.9
2019-01-23T01:02:03.588Z,1004
2019-01-23T01:03:03.927Z,1003.9
2019-01-23T01:04:03.231Z,1003.9
2019-01-23T01:05:02.991Z,1003.9
2019-01-23T01:06:03.450Z,1004
2019-01-23T01:07:03.545Z,1004
2019-01-23T01:08:03.779Z,1003.9
2019-01-23T01:09:03.146Z,1003.9
2019-01-23T01:10:03.285Z,1003.9
2019-01-23T01:11:03.713Z,1003.9
2019-01-23T01:12:03.418Z,1003.9
2019-01-23T01:13:03.019Z,1003.9
2019-01-23T01:14:03.553Z,1003.9
2019-01-23T01:15:03.310Z,1003.9
2019-01-23T01:16:03.319Z,1003.9
2019-01-23T01:17:02.779Z,1003.9
2019-01-23T01:18:03.671Z,1003.9
2019-01-23T01:19:03.424Z,1003.9
2019-01-23T01:20:02.447Z,1003.9
2019-01-23T01:21:03.339Z,1003.9
2019-01-23T01:22:03.699Z,1003.9
2019-01-23T01:23:03.894Z,1003.9
2019-01-23T01:24:03.848Z,1003.9
2019-01-23T01:25:03.276Z,1003.8
2019-01-23T01:26:03.131Z,1003.8
2019-01-23T01:27:03.112Z,1003.9
2019-01-23T01:28:04.003Z,1003.8
2019-01-23T01:29:03.034Z,1003.9
2019-01-23T01:30:04.084Z,1003.8
2019-01-23T01:31:03.686Z,1003.8
2019-01-23T01:32:03.258Z,1003.8
2019-01-23T01:33:03.435Z,1003.8
2019-01-23T01:34:03.750Z,1003.7
2019-01-23T01:35:03.519Z,1003.7
2019-01-23T01:36:03.671Z,1003.8
2019-01-23T01:37:03.732Z,1003.8
2019-01-23T01:38:03.556Z,1003.7
2019-01-23T01:39:03.339Z,1003.6
2019-01-23T01:40:03.488Z,1003.4
2019-01-23T01:41:03.233Z,1003.5
2019-01-23T01:42:02.633Z,1003.6
2019-01-23T01:43:03.278Z,1003.5
2019-01-23T01:44:03.615Z,1003.5
2019-01-23T01:45:03.917Z,1003.5
2019-01-23T01:46:03.272Z,1003.5
2019-01-23T01:47:03.766Z,1003.5
2019-01-23T01:48:03.335Z,1003.5
2019-01-23T01:49:03.242Z,1003.4
2019-01-23T01:50:03.943Z,1003.5
2019-01-23T01:51:03.573Z,1003.4
2019-01-23T01:52:03.549Z,1003.4
2019-01-23T01:53:02.980Z,1003.4
2019-01-23T01:54:03.200Z,1003.3
2019-01-23T01:55:03.528Z,1003.3
2019-01-23T01:56:03.943Z,1003.2
2019-01-23T01:57:03.689Z,1003.2
2019-01-23T01:58:03.710Z,1003.1
2019-01-23T01:59:03.436Z,1003.1
2019-01-23T02:00:03.731Z,1003.2
2019-01-23T02:01:03.562Z,1003.2
2019-01-23T02:02:03.023Z,1003.1
2019-01-23T02:03:03.588Z,1003.1
2019-01-23T02:04:03.842Z,1003.1
2019-01-23T02:05:03.854Z,1003.1
2019-01-23T02:06:03.421Z,1003.1
2019-01-23T02:07:02.466Z,1003.1
2019-01-23T02:08:03.293Z,1003.1
2019-01-23T02:09:03.280Z,1003.1
2019-01-23T02:10:03.930Z,1003.1
2019-01-23T02:11:03.975Z,1003.1
2019-01-23T02:12:03.589Z,1003.1
2019-01-23T02:13:03.719Z,1003.1
2019-01-23T02:14:03.267Z,1003
2019-01-23T02:15:03.038Z,1003.1
2019-01-23T02:16:03.144Z,1003
2019-01-23T02:17:03.938Z,1003
2019-01-23T02:18:02.933Z,1003.1
2019-01-23T02:19:03.317Z,1003
2019-01-23T02:20:03.263Z,1003
2019-01-23T02:21:03.450Z,1003
2019-01-23T02:22:03.672Z,1003
2019-01-23T02:23:03.079Z,1003
2019-01-23T02:24:03.953Z,1002.8
2019-01-23T02:25:04.100Z,1002.8
2019-01-23T02:26:02.874Z,1002.9
2019-01-23T02:27:03.681Z,1002.8
2019-01-23T02:28:03.592Z,1002.8
2019-01-23T02:29:10.086Z,1002.8
2019-01-23T02:30:02.906Z,1002.8
2019-01-23T02:31:03.710Z,1002.8
2019-01-23T02:32:03.468Z,1002.8
2019-01-23T02:33:03.395Z,1002.8
2019-01-23T02:34:03.056Z,1002.7
2019-01-23T02:35:03.789Z,1002.8
2019-01-23T02:36:03.688Z,1002.8
2019-01-23T02:37:03.100Z,1002.8
2019-01-23T02:38:03.209Z,1002.8
2019-01-23T02:39:03.721Z,1002.7
2019-01-23T02:40:03.510Z,1002.6
2019-01-23T02:41:03.060Z,1002.8
2019-01-23T02:42:02.167Z,1002.7
2019-01-23T02:43:03.182Z,1002.7
2019-01-23T02:44:03.589Z,1002.6
2019-01-23T02:45:03.118Z,1002.5
2019-01-23T02:46:03.722Z,1002.5
2019-01-23T02:47:03.745Z,1002.5
2019-01-23T02:48:03.725Z,1002.4
2019-01-23T02:49:03.030Z,1002.4
2019-01-23T02:50:04.015Z,1002.3
2019-01-23T02:51:03.362Z,1002.4
2019-01-23T02:52:03.919Z,1002.4
2019-01-23T02:53:03.156Z,1002.4
2019-01-23T02:54:03.848Z,1002.4
2019-01-23T02:55:03.813Z,1002.4
2019-01-23T02:56:03.667Z,1002.3
2019-01-23T02:57:03.169Z,1002.4
2019-01-23T02:58:03.101Z,1002.4
2019-01-23T02:59:03.233Z,1002.3
2019-01-23T03:00:03.747Z,1002.3
2019-01-23T03:01:03.034Z,1002.3
2019-01-23T03:02:03.620Z,1002.3
2019-01-23T03:03:03.162Z,1002.2
2019-01-23T03:04:03.591Z,1002.2
2019-01-23T03:05:03.428Z,1002.2
2019-01-23T03:06:03.041Z,1002.2
2019-01-23T03:07:03.462Z,1002.2
2019-01-23T03:08:03.007Z,1002.1
2019-01-23T03:09:04.061Z,1002.2
2019-01-23T03:10:03.195Z,1002.2
2019-01-23T03:11:03.222Z,1002.1
2019-01-23T03:12:03.553Z,1002.1
2019-01-23T03:13:03.898Z,1002.1
2019-01-23T03:14:03.703Z,1002.2
2019-01-23T03:15:02.873Z,1002
2019-01-23T03:16:03.961Z,1002
2019-01-23T03:17:02.926Z,1002
2019-01-23T03:18:03.723Z,1002
2019-01-23T03:19:03.127Z,1002
2019-01-23T03:20:04.095Z,1002
2019-01-23T03:21:03.833Z,1002
2019-01-23T03:22:03.544Z,1002
2019-01-23T03:23:03.865Z,1002
2019-01-23T03:24:03.602Z,1002
2019-01-23T03:25:03.408Z,1002
2019-01-23T03:26:03.491Z,1001.9
2019-01-23T03:27:03.255Z,1001.8
2019-01-23T03:28:03.046Z,1001.8
2019-01-23T03:29:03.153Z,1001.9
2019-01-23T03:30:04.069Z,1001.9
2019-01-23T03:31:03.650Z,1001.9
2019-01-23T03:32:03.522Z,1001.9
2019-01-23T03:33:03.917Z,1001.8
2019-01-23T03:34:03.554Z,1001.9
2019-01-23T03:35:03.784Z,1001.9
2019-01-23T03:36:02.286Z,1001.9
2019-01-23T03:37:03.314Z,1001.9
2019-01-23T03:38:02.084Z,1001.8
2019-01-23T03:39:02.902Z,1001.8
2019-01-23T03:40:03.416Z,1001.8
2019-01-23T03:41:03.505Z,1001.7
2019-01-23T03:42:03.811Z,1001.7
2019-01-23T03:43:02.942Z,1001.7
2019-01-23T03:44:03.263Z,1001.7
2019-01-23T03:45:03.282Z,1001.8
2019-01-23T03:46:03.354Z,1001.8
2019-01-23T03:47:03.851Z,1001.8
2019-01-23T03:48:03.066Z,1001.8
2019-01-23T03:49:02.953Z,1001.8
2019-01-23T03:50:03.950Z,1001.8
2019-01-23T03:51:03.747Z,1001.8
2019-01-23T03:52:03.741Z,1001.8
2019-01-23T03:53:03.418Z,1001.8
2019-01-23T03:54:03.132Z,1001.8
2019-01-23T03:55:03.753Z,1001.8
2019-01-23T03:56:03.649Z,1001.8
2019-01-23T03:57:03.195Z,1001.8
2019-01-23T03:58:03.441Z,1001.7
2019-01-23T03:59:02.855Z,1001.8
2019-01-23T04:00:03.276Z,1001.6
2019-01-23T04:01:03.901Z,1001.7
2019-01-23T04:02:02.601Z,1001.6
2019-01-23T04:03:03.564Z,1001.7
2019-01-23T04:04:03.012Z,1001.6
2019-01-23T04:05:03.228Z,1001.6
2019-01-23T04:06:03.824Z,1001.6
2019-01-23T04:07:03.728Z,1001.6
2019-01-23T04:08:03.344Z,1001.6
2019-01-23T04:09:03.184Z,1001.5
2019-01-23T04:10:03.893Z,1001.5
2019-01-23T04:11:03.592Z,1001.6
2019-01-23T04:12:03.139Z,1001.6
2019-01-23T04:13:03.770Z,1001.5
2019-01-23T04:14:03.337Z,1001.5
2019-01-23T04:15:03.591Z,1001.6
2019-01-23T04:16:03.461Z,1001.6
2019-01-23T04:17:03.151Z,1001.5
2019-01-23T04:18:03.811Z,1001.5
2019-01-23T04:19:03.512Z,1001.5
2019-01-23T04:20:03.389Z,1001.5
2019-01-23T04:21:02.859Z,1001.4
2019-01-23T04:22:03.991Z,1001.4
2019-01-23T04:23:03.589Z,1001.4
2019-01-23T04:24:03.145Z,1001.5
2019-01-23T04:25:03.677Z,1001.5
2019-01-23T04:26:03.232Z,1001.6
2019-01-23T04:27:03.972Z,1001.4
2019-01-23T04:28:02.097Z,1001.3
2019-01-23T04:29:03.511Z,1001.3
2019-01-23T04:30:02.075Z,1001.4
2019-01-23T04:31:03.282Z,1001.4
2019-01-23T04:32:03.209Z,1001.4
2019-01-23T04:33:03.433Z,1001.4
2019-01-23T04:34:03.036Z,1001.4
2019-01-23T04:35:03.049Z,1001.3
2019-01-23T04:36:03.206Z,1001.3
2019-01-23T04:37:03.928Z,1001.3
2019-01-23T04:38:03.219Z,1001.3
2019-01-23T04:39:03.536Z,1001.3
2019-01-23T04:40:04.013Z,1001.3
2019-01-23T04:41:03.347Z,1001.3
2019-01-23T04:42:03.456Z,1001.3
2019-01-23T04:43:03.172Z,1001.3
2019-01-23T04:44:03.859Z,1001.3
2019-01-23T04:45:03.490Z,1001.3
2019-01-23T04:46:02.975Z,1001.3
2019-01-23T04:47:03.010Z,1001.2
2019-01-23T04:48:03.284Z,1001.2
2019-01-23T04:49:03.755Z,1001.2
2019-01-23T04:50:03.732Z,1001.1
2019-01-23T04:51:03.764Z,1001.2
2019-01-23T04:52:03.349Z,1001.2
2019-01-23T04:53:03.231Z,1001.2
2019-01-23T04:54:02.783Z,1001.1
2019-01-23T04:55:02.559Z,1001.2
2019-01-23T04:56:02.560Z,1001.2
2019-01-23T04:57:02.151Z,1001.1
2019-01-23T04:58:03.806Z,1001.1
2019-01-23T04:59:03.148Z,1001.2
2019-01-23T05:00:03.790Z,1001.2
2019-01-23T05:01:03.515Z,1001.2
2019-01-23T05:02:03.208Z,1001.1
2019-01-23T05:03:03.179Z,1001.1
2019-01-23T05:04:03.968Z,1001.2
2019-01-23T05:05:03.921Z,1001.2
2019-01-23T05:06:03.612Z,1001.1
2019-01-23T05:07:03.251Z,1001.1
2019-01-23T05:08:03.754Z,1001.1
2019-01-23T05:09:03.469Z,1001.1
2019-01-23T05:10:03.329Z,1001.1
2019-01-23T05:11:03.112Z,1001.3
2019-01-23T05:12:02.988Z,1001.2
2019-01-23T05:13:03.148Z,1001.3
2019-01-23T05:14:02.995Z,1001.3
2019-01-23T05:15:03.004Z,1001.2
2019-01-23T05:16:03.049Z,1001.2
2019-01-23T05:17:03.593Z,1001.1
2019-01-23T05:18:02.976Z,1001.1
2019-01-23T05:19:03.307Z,1001.2
2019-01-23T05:20:03.878Z,1001.1
2019-01-23T05:21:03.187Z,1001.2
2019-01-23T05:22:03.751Z,1001.1
2019-01-23T05:23:03.454Z,1001.1
2019-01-23T05:24:02.988Z,1001.1
2019-01-23T05:25:03.901Z,1001.1
2019-01-23T05:26:03.281Z,1001.1
2019-01-23T05:27:03.825Z,1001.1
2019-01-23T05:28:03.207Z,1001
2019-01-23T05:29:03.170Z,1001
2019-01-23T05:30:03.418Z,1001.1
2019-01-23T05:31:03.170Z,1001
2019-01-23T05:32:03.278Z,1001
2019-01-23T05:33:03.841Z,1001
2019-01-23T05:34:03.190Z,1001
2019-01-23T05:35:03.257Z,1001
2019-01-23T05:36:03.653Z,1001
2019-01-23T05:37:03.418Z,1001
2019-01-23T05:38:03.584Z,1001
2019-01-23T05:39:03.246Z,1001
2019-01-23T05:40:04.005Z,1001
2019-01-23T05:41:03.804Z,1001
2019-01-23T05:42:03.309Z,1000.9
2019-01-23T05:43:03.966Z,1000.9
2019-01-23T05:44:03.499Z,1001
2019-01-23T05:45:03.398Z,1000.9
2019-01-23T05:46:03.455Z,1000.9
2019-01-23T05:47:03.459Z,1000.9
2019-01-23T05:48:03.615Z,1000.9
2019-01-23T05:49:03.841Z,1000.9
2019-01-23T05:50:03.292Z,1000.9
2019-01-23T05:51:03.494Z,1000.9
2019-01-23T05:52:03.211Z,1000.9
2019-01-23T05:53:03.412Z,1000.9
2019-01-23T05:54:03.255Z,1000.9
2019-01-23T05:55:03.362Z,1000.9
2019-01-23T05:56:03.311Z,1000.9
2019-01-23T05:57:03.678Z,1000.9
2019-01-23T05:58:03.929Z,1000.8
2019-01-23T05:59:03.696Z,1000.8
2019-01-23T06:00:03.768Z,1000.8
2019-01-23T06:01:03.862Z,1000.8
2019-01-23T06:02:02.973Z,1000.8
2019-01-23T06:03:03.504Z,1000.8
2019-01-23T06:04:03.298Z,1000.7
2019-01-23T06:05:03.097Z,1000.8
2019-01-23T06:06:03.928Z,1000.7
2019-01-23T06:07:03.138Z,1000.7
2019-01-23T06:08:03.836Z,1000.8
2019-01-23T06:09:02.517Z,1000.8
2019-01-23T06:10:03.993Z,1000.9
2019-01-23T06:11:03.677Z,1000.9
2019-01-23T06:12:03.635Z,1000.7
2019-01-23T06:13:03.910Z,1000.8
2019-01-23T06:14:03.737Z,1000.8
2019-01-23T06:15:03.282Z,1000.7
2019-01-23T06:16:03.687Z,1000.7
2019-01-23T06:17:02.957Z,1000.8
2019-01-23T06:18:03.967Z,1000.8
2019-01-23T06:19:03.486Z,1000.8
2019-01-23T06:20:03.737Z,1000.7
2019-01-23T06:21:03.054Z,1000.7
2019-01-23T06:22:03.759Z,1000.7
2019-01-23T06:23:03.566Z,1000.7
2019-01-23T06:24:03.731Z,1000.7
2019-01-23T06:25:03.932Z,1000.7
2019-01-23T06:26:03.771Z,1000.7
2019-01-23T06:27:03.550Z,1000.7
2019-01-23T06:28:02.964Z,1000.6
2019-01-23T06:29:03.450Z,1000.6
2019-01-23T06:30:10.944Z,1000.6
2019-01-23T06:31:03.492Z,1000.7
2019-01-23T06:32:03.233Z,1000.7
2019-01-23T06:33:02.097Z,1000.7
2019-01-23T06:34:02.223Z,1000.7
2019-01-23T06:35:02.384Z,1000.8
2019-01-23T06:36:03.177Z,1000.7
2019-01-23T06:37:03.674Z,1000.5
2019-01-23T06:38:03.736Z,1000.6
2019-01-23T06:39:03.096Z,1000.6
2019-01-23T06:40:03.902Z,1000.6
2019-01-23T06:41:03.185Z,1000.7
2019-01-23T06:42:02.969Z,1000.7
2019-01-23T06:43:03.593Z,1000.6
2019-01-23T06:44:03.562Z,1000.7
2019-01-23T06:45:04.038Z,1000.6
2019-01-23T06:46:03.671Z,1000.7
2019-01-23T06:47:03.883Z,1000.8
2019-01-23T06:48:03.425Z,1000.6
2019-01-23T06:49:02.626Z,1000.7
2019-01-23T06:50:03.424Z,1000.6
2019-01-23T06:51:03.638Z,1000.7
2019-01-23T06:52:03.595Z,1000.7
2019-01-23T06:53:03.256Z,1000.6
2019-01-23T06:54:03.683Z,1000.6
2019-01-23T06:55:03.787Z,1000.7
2019-01-23T06:56:02.992Z,1000.8
2019-01-23T06:57:03.268Z,1000.7
2019-01-23T06:58:02.358Z,1000.6
2019-01-23T06:59:02.994Z,1000.7
2019-01-23T07:00:03.081Z,1000.7
2019-01-23T07:01:03.361Z,1000.7
2019-01-23T07:02:03.976Z,1000.7
2019-01-23T07:03:03.801Z,1000.8
2019-01-23T07:04:03.487Z,1000.6
2019-01-23T07:05:03.938Z,1000.7
2019-01-23T07:06:03.411Z,1000.7
2019-01-23T07:07:03.194Z,1000.7
2019-01-23T07:08:03.439Z,1000.6
2019-01-23T07:09:03.315Z,1000.7
2019-01-23T07:10:03.968Z,1000.7
2019-01-23T07:11:03.234Z,1000.6
2019-01-23T07:12:03.067Z,1000.6
2019-01-23T07:13:03.824Z,1000.6
2019-01-23T07:14:03.654Z,1000.6
2019-01-23T07:15:03.697Z,1000.5
2019-01-23T07:16:03.824Z,1000.5
2019-01-23T07:17:03.607Z,1000.6
2019-01-23T07:18:03.448Z,1000.6
2019-01-23T07:19:03.598Z,1000.6
2019-01-23T07:20:03.528Z,1000.6
2019-01-23T07:21:03.817Z,1000.6
2019-01-23T07:22:03.683Z,1000.6
2019-01-23T07:23:03.336Z,1000.4
2019-01-23T07:24:03.089Z,1000.4
2019-01-23T07:25:03.398Z,1000.4
2019-01-23T07:26:02.637Z,1000.4
2019-01-23T07:27:03.427Z,1000.4
2019-01-23T07:28:03.797Z,1000.6
2019-01-23T07:29:02.860Z,1000.6
2019-01-23T07:30:03.172Z,1000.3
2019-01-23T07:31:04.023Z,1000.4
2019-01-23T07:32:03.525Z,1000.6
2019-01-23T07:33:03.028Z,1000.3
2019-01-23T07:34:03.858Z,1000.3
2019-01-23T07:35:03.317Z,1000.3
2019-01-23T07:36:03.162Z,1000.3
2019-01-23T07:37:03.812Z,1000.5
2019-01-23T07:38:03.188Z,1000.3
2019-01-23T07:39:03.769Z,1000.3
2019-01-23T07:40:03.021Z,1000.4
2019-01-23T07:41:03.673Z,1000.4
2019-01-23T07:42:03.171Z,1000.4
2019-01-23T07:43:03.263Z,1000.4
2019-01-23T07:44:03.054Z,1000.4
2019-01-23T07:45:03.330Z,1000.3
2019-01-23T07:46:03.181Z,1000.3
2019-01-23T07:47:03.432Z,1000.3
2019-01-23T07:48:03.858Z,1000.3
2019-01-23T07:49:03.308Z,1000.3
2019-01-23T07:50:03.388Z,1000.2
2019-01-23T07:51:03.812Z,1000.3
2019-01-23T07:52:03.192Z,1000.3
2019-01-23T07:53:03.115Z,1000.3
2019-01-23T07:54:05.169Z,1000.3
2019-01-23T07:55:03.581Z,1000.3
2019-01-23T07:56:03.592Z,1000.2
2019-01-23T07:57:03.435Z,1000.2
2019-01-23T07:58:02.821Z,1000.2
2019-01-23T07:59:04.084Z,1000.2
2019-01-23T08:00:03.665Z,1000.2
2019-01-23T08:01:03.186Z,1000.1
2019-01-23T08:02:03.753Z,1000.1
2019-01-23T08:03:03.852Z,1000.1
2019-01-23T08:04:03.311Z,1000.1
2019-01-23T08:05:03.640Z,1000.2
2019-01-23T08:06:03.534Z,1000.2
2019-01-23T08:07:03.820Z,1000.1
2019-01-23T08:08:03.331Z,1000.1
2019-01-23T08:09:03.731Z,1000.2
2019-01-23T08:10:03.279Z,1000.1
2019-01-23T08:11:03.687Z,1000.1
2019-01-23T08:12:03.357Z,1000.1
2019-01-23T08:13:03.894Z,1000
2019-01-23T08:14:03.391Z,1000
2019-01-23T08:15:02.925Z,1000
2019-01-23T08:16:03.400Z,999.9
2019-01-23T08:17:02.934Z,1000
2019-01-23T08:18:03.736Z,1000
2019-01-23T08:19:03.320Z,999.9
2019-01-23T08:20:03.234Z,999.9
2019-01-23T08:21:03.208Z,999.9
2019-01-23T08:22:02.703Z,1000
2019-01-23T08:23:03.077Z,1000
2019-01-23T08:24:02.604Z,1000
2019-01-23T08:25:03.927Z,1000
2019-01-23T08:26:02.659Z,1000
2019-01-23T08:27:07.558Z,999.9
2019-01-23T08:28:03.077Z,999.8
2019-01-23T08:29:03.215Z,999.9
2019-01-23T08:30:03.084Z,999.9
2019-01-23T08:31:02.928Z,1000
2019-01-23T08:32:03.057Z,999.8
2019-01-23T08:33:03.991Z,999.8
2019-01-23T08:34:03.602Z,1000
2019-01-23T08:35:03.095Z,1000.1
2019-01-23T08:36:03.353Z,1000
2019-01-23T08:37:03.877Z,1000
2019-01-23T08:38:03.062Z,999.9
2019-01-23T08:39:03.981Z,999.9
2019-01-23T08:40:03.457Z,999.8
2019-01-23T08:41:03.136Z,999.9
2019-01-23T08:42:03.386Z,999.8
2019-01-23T08:43:03.906Z,999.8
2019-01-23T08:44:03.682Z,999.7
2019-01-23T08:45:03.927Z,999.8
2019-01-23T08:46:03.816Z,999.7
2019-01-23T08:47:03.481Z,999.7
2019-01-23T08:48:03.110Z,999.8
2019-01-23T08:49:03.217Z,999.8
2019-01-23T08:50:03.584Z,999.8
2019-01-23T08:51:03.130Z,999.8
2019-01-23T08:52:03.316Z,999.8
2019-01-23T08:53:02.975Z,999.8
2019-01-23T08:54:02.501Z,999.8
2019-01-23T08:55:02.119Z,999.8
2019-01-23T08:56:03.493Z,999.7
2019-01-23T08:57:03.423Z,999.7
2019-01-23T08:58:03.833Z,999.7
2019-01-23T08:59:03.227Z,999.7
2019-01-23T09:00:04.002Z,999.6
2019-01-23T09:01:03.794Z,999.8
2019-01-23T09:02:03.669Z,999.6
2019-01-23T09:03:03.203Z,999.7
2019-01-23T09:04:03.887Z,999.6
2019-01-23T09:05:03.534Z,999.7
2019-01-23T09:06:03.037Z,999.7
2019-01-23T09:07:03.766Z,999.7
2019-01-23T09:08:03.186Z,999.7
2019-01-23T09:09:03.824Z,999.7
2019-01-23T09:10:03.573Z,999.7
2019-01-23T09:11:03.065Z,999.7
2019-01-23T09:12:03.416Z,999.7
2019-01-23T09:13:02.839Z,999.7
2019-01-23T09:14:03.800Z,999.7
2019-01-23T09:15:03.312Z,999.6
2019-01-23T09:16:03.424Z,999.8
2019-01-23T09:17:03.092Z,999.6
2019-01-23T09:18:03.753Z,999.6
2019-01-23T09:19:02.651Z,999.6
2019-01-23T09:20:03.215Z,999.7
2019-01-23T09:21:02.929Z,999.6
2019-01-23T09:22:04.014Z,999.7
2019-01-23T09:23:03.518Z,999.7
2019-01-23T09:24:03.831Z,999.7
2019-01-23T09:25:03.230Z,999.6
2019-01-23T09:26:02.999Z,999.6
2019-01-23T09:27:04.008Z,999.6
2019-01-23T09:28:03.085Z,999.6
2019-01-23T09:29:03.283Z,999.6
2019-01-23T09:30:03.887Z,999.6
2019-01-23T09:31:03.493Z,999.6
2019-01-23T09:32:03.202Z,999.5
2019-01-23T09:33:03.936Z,999.5
2019-01-23T09:34:03.500Z,999.6
2019-01-23T09:35:03.921Z,999.6
2019-01-23T09:36:03.884Z,999.6
2019-01-23T09:37:03.856Z,999.6
2019-01-23T09:38:03.214Z,999.5
2019-01-23T09:39:03.118Z,999.5
2019-01-23T09:40:03.303Z,999.5
2019-01-23T09:41:02.669Z,999.5
2019-01-23T09:42:03.950Z,999.5
2019-01-23T09:43:02.176Z,999.4
2019-01-23T09:44:03.789Z,999.5
2019-01-23T09:45:03.103Z,999.5
2019-01-23T09:46:03.586Z,999.5
2019-01-23T09:47:03.055Z,999.4
2019-01-23T09:48:03.457Z,999.4
2019-01-23T09:49:03.185Z,999.4
2019-01-23T09:50:03.840Z,999.4
2019-01-23T09:51:03.986Z,999.3
2019-01-23T09:52:03.583Z,999.3
2019-01-23T09:53:03.142Z,999.3
2019-01-23T09:54:03.552Z,999.4
2019-01-23T09:55:03.087Z,999.4
2019-01-23T09:56:03.165Z,999.2
2019-01-23T09:57:03.496Z,999.2
2019-01-23T09:58:03.552Z,999.2
2019-01-23T09:59:03.448Z,999.2
2019-01-23T10:00:03.113Z,999.3
2019-01-23T10:01:07.105Z,999.3
2019-01-23T10:02:03.136Z,999.3
2019-01-23T10:03:03.040Z,999.3
2019-01-23T10:04:03.106Z,999.3
2019-01-23T10:05:03.002Z,999.3
2019-01-23T10:06:03.753Z,999.3
2019-01-23T10:07:03.690Z,999.3
2019-01-23T10:08:03.905Z,999.2
2019-01-23T10:09:03.027Z,999.2
2019-01-23T10:10:03.238Z,999.2
2019-01-23T10:11:03.798Z,999.3
2019-01-23T10:12:03.093Z,999.3
2019-01-23T10:13:03.572Z,999.3
2019-01-23T10:14:03.429Z,999.3
2019-01-23T10:15:03.777Z,999.2
2019-01-23T10:16:03.245Z,999.2
2019-01-23T10:17:03.499Z,999.2
2019-01-23T10:18:03.119Z,999.3
2019-01-23T10:19:03.136Z,999.2
2019-01-23T10:20:04.045Z,999.2
2019-01-23T10:21:03.035Z,999.2
2019-01-23T10:22:02.860Z,999.2
2019-01-23T10:23:03.103Z,999.1
2019-01-23T10:24:02.949Z,999.1
2019-01-23T10:25:03.297Z,999.1
2019-01-23T10:26:03.845Z,999.1
2019-01-23T10:27:03.349Z,999.1
2019-01-23T10:28:03.837Z,999.1
2019-01-23T10:29:03.593Z,999.1
2019-01-23T10:30:03.133Z,999.1
2019-01-23T10:31:07.319Z,999.1
2019-01-23T10:32:03.232Z,999
2019-01-23T10:33:03.998Z,999.1
2019-01-23T10:34:03.402Z,999
2019-01-23T10:35:03.817Z,999
2019-01-23T10:36:02.339Z,999.2
2019-01-23T10:37:03.836Z,999.1
2019-01-23T10:38:03.442Z,999.1
2019-01-23T10:39:03.501Z,999
2019-01-23T10:40:03.342Z,999
2019-01-23T10:41:03.738Z,998.9
2019-01-23T10:42:03.040Z,998.9
2019-01-23T10:43:03.022Z,999
2019-01-23T10:44:03.936Z,999
2019-01-23T10:45:03.588Z,998.9
2019-01-23T10:46:03.590Z,998.9
2019-01-23T10:47:03.804Z,998.9
2019-01-23T10:48:03.230Z,998.8
2019-01-23T10:49:03.679Z,998.9
2019-01-23T10:50:03.452Z,998.9
2019-01-23T10:51:03.481Z,998.9
2019-01-23T10:52:03.909Z,999
2019-01-23T10:53:03.157Z,998.8
2019-01-23T10:54:02.989Z,998.8
2019-01-23T10:55:03.686Z,998.8
2019-01-23T10:56:03.298Z,998.8
2019-01-23T10:57:03.999Z,998.8
2019-01-23T10:58:04.003Z,998.7
2019-01-23T10:59:02.620Z,998.8
2019-01-23T11:00:03.565Z,998.8
2019-01-23T11:01:03.680Z,998.7
2019-01-23T11:02:03.430Z,998.7
2019-01-23T11:03:11.006Z,998.7
2019-01-23T11:04:03.845Z,998.7
2019-01-23T11:05:03.153Z,998.8
2019-01-23T11:06:03.609Z,998.7
2019-01-23T11:07:03.537Z,998.7
2019-01-23T11:08:02.420Z,998.7
2019-01-23T11:09:03.476Z,998.5
2019-01-23T11:10:03.430Z,998.5
2019-01-23T11:11:03.505Z,998.6
2019-01-23T11:12:02.065Z,998.5
2019-01-23T11:13:03.549Z,998.5
2019-01-23T11:14:03.191Z,998.5
2019-01-23T11:15:02.019Z,998.4
2019-01-23T11:16:03.988Z,998.5
2019-01-23T11:17:03.316Z,998.5
2019-01-23T11:18:03.990Z,998.5
2019-01-23T11:19:03.743Z,998.5
2019-01-23T11:20:03.695Z,998.5
2019-01-23T11:21:03.250Z,998.5
2019-01-23T11:22:03.077Z,998.4
2019-01-23T11:23:03.468Z,998.4
2019-01-23T11:24:03.451Z,998.6
2019-01-23T11:25:03.169Z,998.4
2019-01-23T11:26:03.109Z,998.4
2019-01-23T11:27:02.968Z,998.4
2019-01-23T11:28:03.314Z,998.6
2019-01-23T11:29:02.782Z,998.5
2019-01-23T11:30:03.706Z,998.5
2019-01-23T11:31:03.574Z,998.4
2019-01-23T11:32:02.974Z,998.4
2019-01-23T11:33:03.777Z,998.4
2019-01-23T11:34:03.743Z,998.4
2019-01-23T11:35:03.548Z,998.5
2019-01-23T11:36:03.185Z,998.5
2019-01-23T11:37:03.309Z,998.4
2019-01-23T11:38:03.679Z,998.5
2019-01-23T11:39:03.116Z,998.3
2019-01-23T11:40:02.455Z,998.4
2019-01-23T11:41:04.008Z,998.5
2019-01-23T11:42:02.488Z,998.4
2019-01-23T11:43:03.497Z,998.3
2019-01-23T11:44:03.576Z,998.4
2019-01-23T11:45:03.506Z,998.4
2019-01-23T11:46:03.947Z,998.4
2019-01-23T11:47:03.062Z,998.3
2019-01-23T11:48:03.337Z,998.4
2019-01-23T11:49:02.906Z,998.3
2019-01-23T11:50:03.353Z,998.3
2019-01-23T11:51:03.794Z,998.3
2019-01-23T11:52:03.819Z,998.2
2019-01-23T11:53:03.111Z,998.3
2019-01-23T11:54:03.581Z,998.3
2019-01-23T11:55:03.927Z,998.3
2019-01-23T11:56:03.241Z,998.2
2019-01-23T11:57:03.595Z,998.3
2019-01-23T11:58:03.238Z,998.3
2019-01-23T11:59:03.463Z,998.2
2019-01-23T12:00:03.445Z,998.2
2019-01-23T12:01:03.681Z,998.2
2019-01-23T12:02:03.637Z,998.2
2019-01-23T12:03:03.454Z,998.2
2019-01-23T12:04:03.606Z,998.3
2019-01-23T12:05:03.299Z,998.3
2019-01-23T12:06:02.991Z,998.2
2019-01-23T12:07:03.056Z,998.2
2019-01-23T12:08:03.969Z,998.3
2019-01-23T12:09:03.537Z,998.3
2019-01-23T12:10:03.161Z,998.3
2019-01-23T12:11:03.907Z,998.2
2019-01-23T12:12:03.755Z,998.2
2019-01-23T12:13:03.392Z,998.2
2019-01-23T12:14:03.331Z,998.2
2019-01-23T12:15:04.030Z,998.2
2019-01-23T12:16:03.531Z,998.3
2019-01-23T12:17:03.384Z,998.2
2019-01-23T12:18:02.723Z,998.1
2019-01-23T12:19:03.319Z,998.2
2019-01-23T12:20:02.811Z,998.2
2019-01-23T12:21:04.037Z,998.1
2019-01-23T12:22:03.633Z,998.2
2019-01-23T12:23:03.515Z,998.2
2019-01-23T12:24:03.546Z,998.2
2019-01-23T12:25:03.608Z,998.3
2019-01-23T12:26:03.877Z,998.1
2019-01-23T12:27:03.707Z,998.1
2019-01-23T12:28:03.049Z,998.2
2019-01-23T12:29:03.331Z,998.1
2019-01-23T12:30:03.497Z,998.1
2019-01-23T12:31:02.963Z,998.1
2019-01-23T12:32:02.944Z,998.1
2019-01-23T12:33:03.851Z,998.1
2019-01-23T12:34:03.081Z,998.1
2019-01-23T12:35:03.069Z,998.1
2019-01-23T12:36:03.207Z,998
2019-01-23T12:37:03.624Z,997.9
2019-01-23T12:38:03.347Z,997.9
2019-01-23T12:39:03.454Z,998
2019-01-23T12:40:03.676Z,998